Time;durP1;ratioP1;P1;durP2;ratioP2;P2;SDS_P1;SDS_P2;PMS_P1;PMS_P2;Temp;Humidity;BMP_temperature;BMP_pressure;BME280_temperature;BME280_humidity;BME280_pressure;Samples;Min_cycle;Max_cycle;Signal;HPM_P1;HPM_P2
2023/08/03 00:01:24;;;;;;;3.30;0.82;;;15.80;99.90;;;;;;5063025;28;20443;-72
2023/08/03 00:03:50;;;;;;;1.80;0.90;;;15.80;99.90;;;;;;5065574;28;20079;-72
2023/08/03 00:06:16;;;;;;;4.15;0.88;;;15.80;99.90;;;;;;5048394;28;20592;-73
2023/08/03 00:08:42;;;;;;;10.80;1.83;;;15.80;99.90;;;;;;5063557;28;20029;-72
2023/08/03 00:11:07;;;;;;;3.88;0.80;;;15.70;99.90;;;;;;5032331;28;20056;-73
2023/08/03 00:13:33;;;;;;;2.63;0.77;;;15.80;99.90;;;;;;5047353;28;20410;-72
2023/08/03 00:15:59;;;;;;;3.47;0.90;;;15.80;99.90;;;;;;5064776;28;20135;-72
2023/08/03 00:18:24;;;;;;;5.38;0.60;;;15.80;99.90;;;;;;5048225;28;20474;-72
2023/08/03 00:20:50;;;;;;;3.40;1.10;;;15.80;99.90;;;;;;5064246;28;20052;-72
2023/08/03 00:23:16;;;;;;;6.22;0.70;;;15.90;99.90;;;;;;5048038;28;20153;-72
2023/08/03 00:25:42;;;;;;;3.08;0.77;;;15.90;99.90;;;;;;5066027;28;20048;-72
2023/08/03 00:28:08;;;;;;;6.43;0.88;;;15.80;99.90;;;;;;5068878;28;20647;-72
2023/08/03 00:30:33;;;;;;;3.75;0.90;;;15.80;99.90;;;;;;5067189;28;20124;-72
2023/08/03 00:33:00;;;;;;;1.85;0.50;;;15.80;99.90;;;;;;5068636;28;20179;-73
2023/08/03 00:35:25;;;;;;;2.97;0.70;;;15.90;99.90;;;;;;5068087;28;20492;-73
2023/08/03 00:37:53;;;;;;;5.15;0.95;;;15.80;99.90;;;;;;5067570;28;20045;-72
2023/08/03 00:40:19;;;;;;;7.03;1.23;;;15.80;99.90;;;;;;5067713;28;20047;-72
2023/08/03 00:42:45;;;;;;;7.18;0.77;;;15.80;99.90;;;;;;5065115;28;20041;-72
2023/08/03 00:45:11;;;;;;;12.65;2.45;;;15.80;99.90;;;;;;5067898;28;20048;-72
2023/08/03 00:47:38;;;;;;;2.55;0.50;;;15.80;99.90;;;;;;5067287;28;20095;-73
2023/08/03 00:50:05;;;;;;;4.68;0.60;;;15.80;99.90;;;;;;5068744;28;20676;-74
2023/08/03 00:52:34;;;;;;;2.05;0.63;;;15.90;99.90;;;;;;5066876;28;20045;-74
2023/08/03 00:55:01;;;;;;;3.13;0.70;;;15.90;99.90;;;;;;5064534;28;20056;-76
2023/08/03 00:57:28;;;;;;;2.90;0.63;;;15.90;99.90;;;;;;5067834;28;20548;-75
2023/08/03 00:59:54;;;;;;;6.35;0.80;;;15.80;99.90;;;;;;5034276;28;20048;-75
2023/08/03 01:02:20;;;;;;;1.60;0.60;;;15.80;99.90;;;;;;5068622;28;20136;-75
2023/08/03 01:04:46;;;;;;;3.55;0.70;;;15.90;99.90;;;;;;5068842;28;20148;-75
2023/08/03 01:07:12;;;;;;;6.63;0.77;;;15.80;99.90;;;;;;5070452;28;20036;-75
2023/08/03 01:09:37;;;;;;;5.53;0.98;;;15.90;99.90;;;;;;5067147;28;20056;-75
2023/08/03 01:12:04;;;;;;;3.92;1.02;;;15.80;99.90;;;;;;5067891;28;20051;-74
2023/08/03 01:14:30;;;;;;;2.97;0.80;;;15.90;99.90;;;;;;5067592;28;20044;-74
2023/08/03 01:16:55;;;;;;;3.53;0.70;;;15.90;99.90;;;;;;5050623;28;20387;-74
2023/08/03 01:19:22;;;;;;;4.20;0.57;;;15.90;99.90;;;;;;5067317;28;20439;-74
2023/08/03 01:21:49;;;;;;;4.13;0.70;;;15.90;99.90;;;;;;5066659;28;20049;-74
2023/08/03 01:24:14;;;;;;;6.22;0.60;;;15.90;99.90;;;;;;5068105;28;20087;-76
2023/08/03 01:26:42;;;;;;;3.72;0.85;;;15.90;99.90;;;;;;5067147;28;20149;-76
2023/08/03 01:29:08;;;;;;;5.40;1.20;;;15.90;99.90;;;;;;5050525;28;20087;-74
2023/08/03 01:31:34;;;;;;;5.18;1.00;;;15.80;99.90;;;;;;5067052;28;20524;-74
2023/08/03 01:34:01;;;;;;;7.47;1.10;;;15.90;99.90;;;;;;5067366;28;20036;-72
2023/08/03 01:36:26;;;;;;;4.05;0.73;;;15.90;99.90;;;;;;5049897;28;20048;-73
2023/08/03 01:39:08;;;;;;;6.15;0.60;;;15.90;99.90;;;;;;5067795;28;20055;-75
2023/08/03 01:41:35;;;;;;;8.80;1.10;;;15.90;99.90;;;;;;5065101;28;20131;-75
2023/08/03 01:44:30;;;;;;;4.43;0.90;;;15.80;99.90;;;;;;5066280;28;20127;-74
2023/08/03 01:46:58;;;;;;;4.28;0.82;;;15.90;99.90;;;;;;5064553;28;20347;-75
2023/08/03 01:49:27;;;;;;;7.22;0.88;;;15.80;99.90;;;;;;5067441;28;20044;-74
2023/08/03 01:51:52;;;;;;;6.20;0.63;;;15.80;99.90;;;;;;5064766;28;20133;-77
2023/08/03 01:54:18;;;;;;;2.33;0.80;;;15.90;99.90;;;;;;5067440;28;20094;-75
2023/08/03 01:56:44;;;;;;;3.78;0.80;;;15.90;99.90;;;;;;5066006;28;20048;-75
2023/08/03 01:59:10;;;;;;;5.30;0.77;;;15.80;99.90;;;;;;5067236;28;20474;-76
2023/08/03 02:01:36;;;;;;;4.32;0.70;;;15.80;99.90;;;;;;5049611;28;20048;-76
2023/08/03 02:04:02;;;;;;;2.47;0.60;;;15.90;99.90;;;;;;5066872;28;20048;-75
2023/08/03 02:06:28;;;;;;;8.43;0.98;;;15.80;99.90;;;;;;5066146;28;20056;-77
2023/08/03 02:08:53;;;;;;;7.22;0.73;;;15.90;99.90;;;;;;5066577;28;20131;-78
2023/08/03 02:11:19;;;;;;;10.65;1.02;;;15.90;99.90;;;;;;5050542;28;20049;-79
2023/08/03 02:13:45;;;;;;;5.65;0.93;;;15.80;99.90;;;;;;5066660;28;20052;-79
2023/08/03 02:16:11;;;;;;;3.08;0.88;;;15.80;99.90;;;;;;5050496;28;20120;-79
2023/08/03 02:18:38;;;;;;;1.55;0.50;;;15.80;99.90;;;;;;5049087;28;20116;-79
2023/08/03 02:21:05;;;;;;;1.88;0.80;;;15.70;99.90;;;;;;5066926;28;20573;-79
2023/08/03 02:23:32;;;;;;;4.53;0.60;;;15.80;99.90;;;;;;5049935;28;20052;-78
2023/08/03 02:25:58;;;;;;;3.28;1.00;;;15.90;99.90;;;;;;5066701;28;20052;-77
2023/08/03 02:28:24;;;;;;;4.15;0.80;;;15.90;99.90;;;;;;5050689;28;20041;-78
2023/08/03 02:30:50;;;;;;;8.60;0.88;;;15.90;99.90;;;;;;5032862;28;20148;-78
2023/08/03 02:33:15;;;;;;;4.38;0.90;;;15.80;99.90;;;;;;5083403;28;20044;-77
2023/08/03 02:35:41;;;;;;;6.57;0.82;;;15.90;99.90;;;;;;5049560;28;20078;-78
2023/08/03 02:38:07;;;;;;;6.55;0.77;;;15.90;99.90;;;;;;5034049;28;20114;-77
2023/08/03 02:40:33;;;;;;;4.90;0.90;;;15.90;99.90;;;;;;5064861;28;20075;-76
2023/08/03 02:42:59;;;;;;;4.22;0.77;;;15.90;99.90;;;;;;5049142;28;20049;-76
2023/08/03 02:45:25;;;;;;;4.60;0.45;;;15.90;99.90;;;;;;5065998;28;20136;-77
2023/08/03 02:47:51;;;;;;;1.80;0.60;;;15.80;99.90;;;;;;5050109;28;20051;-77
2023/08/03 02:50:17;;;;;;;4.70;0.90;;;15.80;99.90;;;;;;5065450;28;20070;-76
2023/08/03 02:52:43;;;;;;;4.50;1.15;;;15.80;99.90;;;;;;5065679;28;20910;-77
2023/08/03 02:55:09;;;;;;;2.90;0.50;;;15.90;99.90;;;;;;5049786;28;20090;-77
2023/08/03 02:57:34;;;;;;;8.48;0.85;;;15.90;99.90;;;;;;5048801;28;20044;-77
2023/08/03 03:00:00;;;;;;;3.33;0.80;;;15.90;99.90;;;;;;5049890;28;20044;-77
2023/08/03 03:02:26;;;;;;;1.52;0.60;;;15.80;99.90;;;;;;5048485;28;20110;-77
2023/08/03 03:04:52;;;;;;;2.38;0.88;;;15.90;99.90;;;;;;5067120;28;20037;-77
2023/08/03 03:07:17;;;;;;;1.70;0.70;;;15.80;99.90;;;;;;5048321;28;20044;-76
2023/08/03 03:09:43;;;;;;;3.88;0.68;;;15.80;99.90;;;;;;5049519;28;20040;-77
2023/08/03 03:12:09;;;;;;;1.38;0.57;;;15.80;99.90;;;;;;5065394;28;20097;-77
2023/08/03 03:14:35;;;;;;;2.17;0.50;;;15.90;99.90;;;;;;5049260;28;20462;-77
2023/08/03 03:17:02;;;;;;;3.80;0.77;;;15.90;99.90;;;;;;5065188;28;20489;-76
2023/08/03 03:19:28;;;;;;;5.15;0.80;;;15.90;99.90;;;;;;5068251;28;20087;-76
2023/08/03 03:21:54;;;;;;;5.70;0.73;;;15.90;99.90;;;;;;5066044;28;20075;-76
2023/08/03 03:24:20;;;;;;;3.60;0.88;;;15.80;99.90;;;;;;5051415;28;20102;-77
2023/08/03 03:26:45;;;;;;;1.33;1.00;;;15.80;99.90;;;;;;5066066;28;20048;-76
2023/08/03 03:29:11;;;;;;;1.98;0.70;;;15.80;99.90;;;;;;5048156;28;20041;-76
2023/08/03 03:31:37;;;;;;;0.98;0.60;;;15.80;99.90;;;;;;5065479;28;20055;-76
2023/08/03 03:34:03;;;;;;;0.70;0.70;;;15.80;99.90;;;;;;5065564;28;20049;-76
2023/08/03 03:36:28;;;;;;;3.10;0.80;;;15.80;99.90;;;;;;5064566;28;20048;-76
2023/08/03 03:38:54;;;;;;;1.73;0.82;;;15.80;99.90;;;;;;5066289;28;20125;-77
2023/08/03 03:41:20;;;;;;;1.30;0.63;;;15.80;99.90;;;;;;5047408;28;20182;-76
2023/08/03 03:43:46;;;;;;;3.42;0.30;;;15.80;99.90;;;;;;5066038;28;20039;-76
2023/08/03 03:46:11;;;;;;;0.70;0.40;;;15.80;99.90;;;;;;5064077;28;20495;-75
2023/08/03 03:48:37;;;;;;;0.45;0.45;;;15.80;99.90;;;;;;5065347;28;20051;-76
2023/08/03 03:51:03;;;;;;;4.68;0.30;;;15.90;99.90;;;;;;5064918;28;20106;-74
2023/08/03 03:53:29;;;;;;;0.55;0.45;;;15.80;99.90;;;;;;5048163;28;20059;-76
2023/08/03 03:55:54;;;;;;;0.90;0.40;;;15.90;99.90;;;;;;5065469;28;20113;-75
2023/08/03 03:58:20;;;;;;;0.43;0.38;;;15.80;99.90;;;;;;5030890;28;20048;-75
2023/08/03 04:00:46;;;;;;;4.35;0.60;;;15.80;99.90;;;;;;5067760;28;20546;-74
2023/08/03 04:03:11;;;;;;;1.85;0.50;;;15.90;99.90;;;;;;5051526;28;20072;-75
2023/08/03 04:05:38;;;;;;;0.57;0.38;;;15.80;99.90;;;;;;5053194;28;20076;-74
2023/08/03 04:08:04;;;;;;;3.22;0.60;;;15.90;99.90;;;;;;5068828;28;20417;-76
2023/08/03 04:10:31;;;;;;;0.98;0.55;;;15.80;99.90;;;;;;5069145;28;20111;-74
2023/08/03 04:12:57;;;;;;;0.60;0.40;;;15.90;99.90;;;;;;5069284;28;20052;-74
2023/08/03 04:15:23;;;;;;;2.55;0.50;;;15.90;99.90;;;;;;5068519;28;20104;-75
2023/08/03 04:17:49;;;;;;;1.98;0.50;;;15.90;99.90;;;;;;5069303;28;20551;-75
2023/08/03 04:20:16;;;;;;;0.40;0.40;;;15.90;99.90;;;;;;5051339;28;20407;-75
2023/08/03 04:22:42;;;;;;;1.98;0.70;;;15.90;99.90;;;;;;5069248;28;20045;-74
2023/08/03 04:25:10;;;;;;;3.17;0.50;;;15.90;99.90;;;;;;5068095;28;20052;-74
2023/08/03 04:27:36;;;;;;;0.60;0.60;;;16.00;99.90;;;;;;5052244;28;20076;-74
2023/08/03 04:30:02;;;;;;;1.65;0.60;;;15.90;99.90;;;;;;5068791;28;20127;-74
2023/08/03 04:32:28;;;;;;;1.75;0.50;;;15.90;99.90;;;;;;5068363;28;20060;-75
2023/08/03 04:34:54;;;;;;;0.70;0.50;;;15.90;99.90;;;;;;5069136;28;20048;-74
2023/08/03 04:37:19;;;;;;;0.57;0.57;;;16.00;99.90;;;;;;5067242;28;20055;-75
2023/08/03 04:39:46;;;;;;;4.00;0.57;;;15.90;99.90;;;;;;5069122;28;20059;-75
2023/08/03 04:42:11;;;;;;;1.25;0.70;;;15.90;99.90;;;;;;5067360;28;20040;-75
2023/08/03 04:44:37;;;;;;;1.85;0.60;;;15.90;99.90;;;;;;5069253;28;20059;-75
2023/08/03 04:47:03;;;;;;;5.88;0.60;;;16.00;99.90;;;;;;5051239;28;20041;-74
2023/08/03 04:49:29;;;;;;;1.55;0.73;;;15.90;99.90;;;;;;5068840;28;20141;-75
2023/08/03 04:51:55;;;;;;;2.90;0.57;;;16.00;99.90;;;;;;5068151;28;20537;-76
2023/08/03 04:54:20;;;;;;;3.65;0.52;;;15.90;99.90;;;;;;5050867;28;20498;-76
2023/08/03 04:56:46;;;;;;;2.00;0.70;;;15.90;99.90;;;;;;5051989;28;20063;-75
2023/08/03 04:59:12;;;;;;;1.38;0.70;;;15.90;99.90;;;;;;5067262;28;20127;-75
2023/08/03 05:01:38;;;;;;;1.25;0.80;;;16.00;99.90;;;;;;5068415;28;20056;-75
2023/08/03 05:04:04;;;;;;;1.02;0.70;;;16.00;99.90;;;;;;5050371;28;20045;-74
2023/08/03 05:06:29;;;;;;;2.58;0.80;;;16.00;99.90;;;;;;5068451;28;20080;-75
2023/08/03 05:08:55;;;;;;;1.27;0.80;;;16.00;99.90;;;;;;5051070;28;20662;-75
2023/08/03 05:11:21;;;;;;;2.15;0.60;;;16.00;99.90;;;;;;5049926;28;20091;-75
2023/08/03 05:13:47;;;;;;;1.52;0.77;;;16.10;99.90;;;;;;5051311;28;20062;-75
2023/08/03 05:16:13;;;;;;;2.80;1.00;;;16.20;99.90;;;;;;5033657;28;20117;-76
2023/08/03 05:18:38;;;;;;;1.73;1.10;;;16.20;99.90;;;;;;5051680;28;20078;-77
2023/08/03 05:21:04;;;;;;;2.60;1.00;;;16.20;99.90;;;;;;5034146;28;20072;-77
2023/08/03 05:23:30;;;;;;;7.80;0.85;;;16.20;99.90;;;;;;5035057;28;20048;-78
2023/08/03 05:25:56;;;;;;;3.92;0.90;;;16.30;99.90;;;;;;5050576;28;20481;-78
2023/08/03 05:28:25;;;;;;;2.30;0.90;;;16.20;99.90;;;;;;5034418;28;20402;-79
2023/08/03 05:30:51;;;;;;;2.25;1.00;;;16.30;99.90;;;;;;5035728;28;20045;-77
2023/08/03 05:33:17;;;;;;;1.17;0.80;;;16.20;99.90;;;;;;5067288;28;20041;-78
2023/08/03 05:35:44;;;;;;;2.25;1.00;;;16.30;99.90;;;;;;5034789;28;20044;-77
2023/08/03 05:38:10;;;;;;;1.13;1.00;;;16.30;99.90;;;;;;5050085;28;20048;-77
2023/08/03 05:40:40;;;;;;;1.33;0.65;;;16.30;99.90;;;;;;5051182;28;20043;-77
2023/08/03 05:43:15;;;;;;;6.60;1.95;;;16.40;99.90;;;;;;5033660;28;20072;-77
2023/08/03 05:45:50;;;;;;;1.15;0.60;;;16.40;99.90;;;;;;5050976;28;20052;-77
2023/08/03 05:48:17;;;;;;;0.93;0.70;;;16.30;99.90;;;;;;5051361;28;20052;-77
2023/08/03 05:50:48;;;;;;;1.27;0.60;;;16.30;99.90;;;;;;5050101;28;20044;-77
2023/08/03 05:53:14;;;;;;;1.13;0.30;;;16.30;99.90;;;;;;5067968;28;20048;-77
2023/08/03 05:55:41;;;;;;;2.45;0.35;;;16.30;99.90;;;;;;5064620;28;20036;-77
2023/08/03 05:58:11;;;;;;;1.98;0.50;;;16.30;99.90;;;;;;5051625;28;20536;-76
2023/08/03 06:00:40;;;;;;;1.52;0.60;;;16.10;99.90;;;;;;5044472;28;20048;-76
2023/08/03 06:03:14;;;;;;;1.30;0.63;;;16.10;99.90;;;;;;5067804;28;20059;-76
2023/08/03 06:05:45;;;;;;;1.75;0.68;;;16.10;99.90;;;;;;5066997;28;20051;-76
2023/08/03 06:08:13;;;;;;;6.20;0.80;;;16.20;99.90;;;;;;5066414;28;20078;-76
2023/08/03 06:10:39;;;;;;;1.27;0.70;;;16.20;99.90;;;;;;5066423;28;20052;-76
2023/08/03 06:13:08;;;;;;;2.42;0.98;;;16.20;99.90;;;;;;5032934;28;20082;-77
2023/08/03 06:15:35;;;;;;;3.88;0.80;;;16.20;99.90;;;;;;5066807;28;20045;-75
2023/08/03 06:18:03;;;;;;;4.65;0.60;;;16.20;99.90;;;;;;5048594;28;20052;-76
2023/08/03 06:20:29;;;;;;;4.30;0.57;;;16.30;99.90;;;;;;5050523;28;21638;-76
2023/08/03 06:22:56;;;;;;;1.67;0.50;;;16.20;99.90;;;;;;5066330;28;20041;-76
2023/08/03 06:25:22;;;;;;;2.97;0.75;;;16.30;99.90;;;;;;5067644;28;20091;-75
2023/08/03 06:27:50;;;;;;;2.53;1.02;;;16.30;99.90;;;;;;5067222;28;20087;-76
2023/08/03 06:30:17;;;;;;;1.20;1.05;;;16.30;99.90;;;;;;5048957;28;20146;-77
2023/08/03 06:32:43;;;;;;;1.33;1.10;;;16.20;99.90;;;;;;5066993;28;20036;-76
2023/08/03 06:35:34;;;;;;;2.90;1.38;;;16.40;99.90;;;;;;5065145;28;20629;-76
2023/08/03 06:38:02;;;;;;;2.05;1.10;;;16.30;99.90;;;;;;5046589;28;20044;-75
2023/08/03 06:40:28;;;;;;;1.10;1.10;;;16.40;99.90;;;;;;5066765;28;20388;-75
2023/08/03 06:42:54;;;;;;;6.70;1.23;;;16.40;99.90;;;;;;5065252;28;20494;-75
2023/08/03 06:45:20;;;;;;;1.48;1.27;;;16.50;99.90;;;;;;5066277;28;20089;-75
2023/08/03 06:47:47;;;;;;;6.25;1.00;;;16.50;99.90;;;;;;5047851;28;20047;-74
2023/08/03 06:50:13;;;;;;;3.63;1.02;;;16.60;99.90;;;;;;5050235;28;20493;-75
2023/08/03 06:52:38;;;;;;;1.98;1.02;;;16.60;99.90;;;;;;5064797;28;20131;-75
2023/08/03 06:55:04;;;;;;;1.05;1.00;;;16.70;99.90;;;;;;5048899;28;20058;-75
2023/08/03 06:57:30;;;;;;;1.20;1.10;;;16.90;99.90;;;;;;5040750;28;20102;-75
2023/08/03 06:59:57;;;;;;;5.45;1.65;;;17.00;99.90;;;;;;5060463;28;20131;-75
2023/08/03 07:02:24;;;;;;;0.85;0.85;;;17.00;99.90;;;;;;5050324;28;20518;-75
2023/08/03 07:04:49;;;;;;;3.00;0.88;;;17.00;99.90;;;;;;5064346;28;20438;-74
2023/08/03 07:07:15;;;;;;;1.10;0.85;;;17.00;99.90;;;;;;5065351;28;20044;-75
2023/08/03 07:09:41;;;;;;;0.98;0.90;;;16.90;99.90;;;;;;5064360;28;20186;-74
2023/08/03 07:12:10;;;;;;;0.73;0.63;;;16.90;99.90;;;;;;5066603;28;20052;-74
2023/08/03 07:14:35;;;;;;;1.30;0.87;;;16.90;99.90;;;;;;5064924;28;20081;-74
2023/08/03 07:17:01;;;;;;;1.75;0.57;;;16.90;99.90;;;;;;5047133;28;20307;-72
2023/08/03 07:19:27;;;;;;;5.15;0.47;;;16.90;99.90;;;;;;5065920;28;20040;-74
2023/08/03 07:21:52;;;;;;;0.95;0.30;;;16.90;99.90;;;;;;5047133;28;20096;-74
2023/08/03 07:24:18;;;;;;;0.32;0.32;;;16.90;99.90;;;;;;5066044;28;20044;-74
2023/08/03 07:26:44;;;;;;;0.30;0.30;;;17.00;99.90;;;;;;5063311;28;20075;-73
2023/08/03 07:29:10;;;;;;;0.15;0.15;;;17.00;99.90;;;;;;5066194;28;20513;-73
2023/08/03 07:31:35;;;;;;;0.57;0.30;;;17.10;99.90;;;;;;5064603;28;20498;-73
2023/08/03 07:34:01;;;;;;;1.08;0.30;;;17.40;99.90;;;;;;5049423;28;20044;-73
2023/08/03 07:36:27;;;;;;;0.45;0.10;;;17.50;99.90;;;;;;5063728;28;20055;-74
2023/08/03 07:38:52;;;;;;;1.25;0.30;;;17.70;99.90;;;;;;5066037;28;20052;-73
2023/08/03 07:41:18;;;;;;;1.20;0.20;;;17.80;99.90;;;;;;5065917;28;20088;-74
2023/08/03 07:43:44;;;;;;;0.65;0.28;;;17.70;99.90;;;;;;5031017;28;20041;-73
2023/08/03 07:46:10;;;;;;;0.57;0.30;;;17.50;99.90;;;;;;5065993;28;20056;-73
2023/08/03 07:48:35;;;;;;;1.73;0.35;;;17.40;99.90;;;;;;5046937;28;20028;-73
2023/08/03 07:51:14;;;;;;;2.40;0.30;;;17.70;99.90;;;;;;5062865;28;20068;-73
2023/08/03 07:53:40;;;;;;;1.02;0.50;;;18.10;99.90;;;;;;5064821;28;20052;-72
2023/08/03 07:56:19;;;;;;;2.38;0.75;;;18.40;99.90;;;;;;5064043;28;20032;-74
2023/08/03 07:58:46;;;;;;;3.40;0.50;;;18.70;99.90;;;;;;5064412;28;20502;-73
2023/08/03 08:01:12;;;;;;;1.80;0.60;;;19.00;99.90;;;;;;5064351;28;20110;-74
2023/08/03 08:03:39;;;;;;;3.00;0.35;;;19.10;99.90;;;;;;5082465;28;20049;-74
2023/08/03 08:06:14;;;;;;;3.55;0.80;;;19.20;99.90;;;;;;5064459;28;20457;-72
2023/08/03 08:08:40;;;;;;;2.08;0.63;;;19.20;99.90;;;;;;5048882;28;20108;-72
2023/08/03 08:11:06;;;;;;;2.70;0.60;;;19.30;99.90;;;;;;5064774;28;20076;-73
2023/08/03 08:13:32;;;;;;;2.75;0.70;;;19.60;99.90;;;;;;5047406;28;20121;-73
2023/08/03 08:16:09;;;;;;;0.82;0.40;;;19.60;99.90;;;;;;5064129;28;20487;-72
2023/08/03 08:18:35;;;;;;;4.85;0.40;;;19.40;99.90;;;;;;5051700;28;20053;-71
2023/08/03 08:21:06;;;;;;;1.80;0.47;;;19.20;99.90;;;;;;5044212;28;20417;-72
2023/08/03 08:23:32;;;;;;;1.38;0.60;;;19.00;99.90;;;;;;5065374;28;20127;-71
2023/08/03 08:25:58;;;;;;;5.75;1.10;;;18.80;99.90;;;;;;5064680;28;20571;-71
2023/08/03 08:28:25;;;;;;;1.63;0.52;;;18.90;99.90;;;;;;5065047;28;20048;-71
2023/08/03 08:30:51;;;;;;;9.63;0.98;;;19.10;99.90;;;;;;5063241;28;20385;-72
2023/08/03 08:33:18;;;;;;;1.42;0.55;;;19.00;99.90;;;;;;5081729;28;20131;-71
2023/08/03 08:35:46;;;;;;;2.60;0.60;;;19.00;99.90;;;;;;5062936;28;20491;-72
2023/08/03 08:38:12;;;;;;;2.28;0.77;;;18.80;99.90;;;;;;5064756;28;20036;-72
2023/08/03 08:40:40;;;;;;;5.85;0.95;;;18.70;99.90;;;;;;5063406;28;20417;-72
2023/08/03 08:43:06;;;;;;;3.60;0.82;;;18.90;99.90;;;;;;5064444;28;20049;-72
2023/08/03 08:45:38;;;;;;;3.15;1.00;;;18.90;99.90;;;;;;5065056;28;20099;-71
2023/08/03 08:48:05;;;;;;;4.32;0.70;;;18.90;99.90;;;;;;5067288;28;20383;-72
2023/08/03 08:50:32;;;;;;;2.45;0.63;;;19.10;99.90;;;;;;5065054;28;20052;-71
2023/08/03 08:52:58;;;;;;;5.55;1.02;;;19.20;99.90;;;;;;5066311;28;20113;-72
2023/08/03 08:55:29;;;;;;;3.72;0.93;;;19.70;99.90;;;;;;5051032;28;20044;-71
2023/08/03 08:57:56;;;;;;;5.80;0.80;;;19.70;99.90;;;;;;5066497;28;20102;-71
2023/08/03 09:00:26;;;;;;;3.10;0.70;;;19.60;99.90;;;;;;5068399;28;20040;-71
2023/08/03 09:02:56;;;;;;;1.55;0.65;;;19.50;99.90;;;;;;5063849;28;20032;-71
2023/08/03 09:05:26;;;;;;;2.10;0.80;;;19.40;99.90;;;;;;5083787;28;20056;-71
2023/08/03 09:07:59;;;;;;;;;;;19.30;99.90;;;;;;5068107;28;20079;-71
2023/08/03 09:10:25;;;;;;;1.80;0.68;;;19.20;99.90;;;;;;5066590;28;19928;-71
2023/08/03 09:12:51;;;;;;;6.00;1.08;;;19.50;99.90;;;;;;5056005;28;20079;-71
2023/08/03 09:15:16;;;;;;;8.70;0.98;;;19.70;99.90;;;;;;5062906;28;20401;-71
2023/08/03 09:17:44;;;;;;;3.40;1.15;;;20.00;99.90;;;;;;5067570;28;20067;-71
2023/08/03 09:20:27;;;;;;;7.13;1.08;;;20.30;99.90;;;;;;5058255;28;20049;-71
2023/08/03 09:22:52;;;;;;;1.85;0.80;;;20.50;99.90;;;;;;5037010;28;20056;-71
2023/08/03 09:25:18;;;;;;;4.90;0.88;;;20.50;99.90;;;;;;5068256;28;20053;-70
2023/08/03 09:27:49;;;;;;;1.70;0.80;;;20.60;99.90;;;;;;5066044;28;20127;-70
2023/08/03 09:30:15;;;;;;;3.42;0.57;;;20.80;99.90;;;;;;5051256;28;20552;-71
2023/08/03 09:32:41;;;;;;;3.50;1.02;;;20.90;99.90;;;;;;5049696;28;20040;-71
2023/08/03 09:35:23;;;;;;;4.85;0.90;;;21.00;99.90;;;;;;5067121;28;20040;-71
2023/08/03 09:37:54;;;;;;;3.83;0.80;;;20.80;99.90;;;;;;5069028;28;20402;-71
2023/08/03 09:40:20;;;;;;;5.13;0.88;;;20.50;99.90;;;;;;5066088;28;20056;-71
2023/08/03 09:42:49;;;;;;;3.90;1.00;;;20.30;99.90;;;;;;5067908;28;20056;-71
2023/08/03 09:45:15;;;;;;;3.85;1.38;;;20.30;99.90;;;;;;5081445;28;20067;-71
2023/08/03 09:47:41;;;;;;;3.83;1.10;;;20.20;99.90;;;;;;5067598;28;20037;-72
2023/08/03 09:50:09;;;;;;;1.80;1.08;;;20.00;99.90;;;;;;5065349;28;20037;-71
2023/08/03 09:52:46;;;;;;;4.93;1.02;;;19.90;99.90;;;;;;5067261;28;20072;-71
2023/08/03 09:55:19;;;;;;;5.20;1.20;;;19.70;99.90;;;;;;5066701;28;20052;-72
2023/08/03 09:57:58;;;;;;;6.00;1.52;;;19.60;99.90;;;;;;5065367;28;20548;-71
2023/08/03 10:00:25;;;;;;;11.18;1.58;;;19.50;99.90;;;;;;5064936;28;20536;-71
2023/08/03 10:03:10;;;;;;;6.82;2.17;;;19.80;99.90;;;;;;5066044;28;20094;-71
2023/08/03 10:05:45;;;;;;;5.63;1.13;;;19.90;99.90;;;;;;5049684;28;20093;-72
2023/08/03 10:08:30;;;;;;;6.82;1.42;;;19.90;99.90;;;;;;5066581;28;20047;-71
2023/08/03 10:11:01;;;;;;;3.90;1.20;;;19.90;99.90;;;;;;5065175;28;20059;-72
2023/08/03 10:13:32;;;;;;;4.47;1.20;;;19.80;99.90;;;;;;5067243;28;20049;-71
2023/08/03 10:15:59;;;;;;;6.25;1.50;;;19.70;99.90;;;;;;5076493;28;20191;-71
2023/08/03 10:18:26;;;;;;;8.77;1.50;;;19.60;99.90;;;;;;5067248;28;20398;-72
2023/08/03 10:20:51;;;;;;;4.53;1.25;;;19.50;99.90;;;;;;5067741;28;20059;-71
2023/08/03 10:23:18;;;;;;;5.03;1.73;;;19.40;99.90;;;;;;5065494;28;20048;-71
2023/08/03 10:25:58;;;;;;;1.80;1.20;;;19.40;99.90;;;;;;5065631;28;20113;-72
2023/08/03 10:28:25;;;;;;;6.22;1.73;;;19.30;99.90;;;;;;5064008;28;20444;-71
2023/08/03 10:31:04;;;;;;;9.82;1.38;;;19.30;99.90;;;;;;5050386;28;20083;-71
2023/08/03 10:33:51;;;;;;;3.72;1.55;;;19.40;99.90;;;;;;5060622;28;20480;-72
2023/08/03 10:36:29;;;;;;;7.75;1.90;;;19.60;99.90;;;;;;5060611;28;20494;-72
2023/08/03 10:39:03;;;;;;;10.13;2.85;;;19.90;99.90;;;;;;5066395;28;20064;-72
2023/08/03 10:41:36;;;;;;;6.47;1.77;;;20.20;99.90;;;;;;5063033;28;20046;-71
2023/08/03 10:44:05;;;;;;;5.47;1.30;;;20.40;99.90;;;;;;5065862;28;20060;-72
2023/08/03 10:46:32;;;;;;;6.88;1.67;;;20.70;99.90;;;;;;5064904;28;20043;-72
2023/08/03 10:48:57;;;;;;;8.77;0.95;;;20.90;99.90;;;;;;5066914;28;20056;-72
2023/08/03 10:51:23;;;;;;;7.72;1.60;;;21.20;99.90;;;;;;5065334;28;20094;-72
2023/08/03 10:53:49;;;;;;;5.38;1.30;;;21.20;99.90;;;;;;5064507;28;20559;-72
2023/08/03 10:56:15;;;;;;;8.25;1.70;;;21.00;99.90;;;;;;5065654;28;20125;-72
2023/08/03 10:58:47;;;;;;;5.07;1.77;;;20.70;99.90;;;;;;5063564;28;20518;-73
2023/08/03 11:01:25;;;;;;;4.13;1.08;;;20.50;99.90;;;;;;5065951;28;20414;-72
2023/08/03 11:03:51;;;;;;;6.25;2.05;;;20.50;99.90;;;;;;5065158;28;20036;-72
2023/08/03 11:06:17;;;;;;;4.47;1.02;;;20.50;99.90;;;;;;5064290;28;20118;-71
2023/08/03 11:08:47;;;;;;;3.65;1.23;;;20.70;99.90;;;;;;5060920;28;20037;-74
2023/08/03 11:11:21;;;;;;;4.60;1.10;;;21.00;99.90;;;;;;5063129;28;20048;-73
2023/08/03 11:13:48;;;;;;;8.63;1.58;;;21.10;99.90;;;;;;5062931;28;20086;-73
2023/08/03 11:16:20;;;;;;;4.63;1.35;;;21.00;99.90;;;;;;5063608;28;20053;-72
2023/08/03 11:18:47;;;;;;;2.63;0.93;;;20.90;99.90;;;;;;5056840;28;20040;-73
2023/08/03 11:21:13;;;;;;;2.38;0.80;;;20.80;99.90;;;;;;5069137;28;20087;-72
2023/08/03 11:23:39;;;;;;;4.47;1.35;;;20.60;99.90;;;;;;5081465;28;20048;-73
2023/08/03 11:26:07;;;;;;;3.95;0.73;;;20.50;99.90;;;;;;5065447;28;20044;-72
2023/08/03 11:28:41;;;;;;;3.15;1.10;;;20.60;99.90;;;;;;5064345;28;20401;-73
2023/08/03 11:31:20;;;;;;;5.05;1.55;;;20.60;99.90;;;;;;5063690;28;20139;-72
2023/08/03 11:33:53;;;;;;;;;;;20.60;99.90;;;;;;5060324;28;20048;-72
2023/08/03 11:36:20;;;;;;;6.07;0.80;;;20.70;99.90;;;;;;5048361;28;19947;-74
2023/08/03 11:38:47;;;;;;;13.20;1.30;;;20.70;99.90;;;;;;5065264;28;20119;-73
2023/08/03 11:41:14;;;;;;;3.45;0.93;;;20.80;99.90;;;;;;5060145;28;20490;-73
2023/08/03 11:43:40;;;;;;;5.05;1.17;;;20.90;99.90;;;;;;5062614;28;20044;-73
2023/08/03 11:46:06;;;;;;;5.60;1.17;;;20.90;99.90;;;;;;5051909;28;20056;-73
2023/08/03 11:48:32;;;;;;;9.77;2.25;;;20.90;99.90;;;;;;5047454;28;20068;-73
2023/08/03 11:50:58;;;;;;;6.40;1.02;;;21.00;99.90;;;;;;5080646;28;20133;-73
2023/08/03 11:53:31;;;;;;;4.22;1.13;;;21.10;99.90;;;;;;5063047;28;20076;-73
2023/08/03 11:56:00;;;;;;;3.97;0.80;;;21.20;99.90;;;;;;5048414;28;20350;-73
2023/08/03 11:58:27;;;;;;;3.93;1.20;;;21.10;99.90;;;;;;5046406;28;20379;-73
2023/08/03 12:01:02;;;;;;;2.00;0.80;;;21.10;99.90;;;;;;5065816;28;20784;-72
2023/08/03 12:03:36;;;;;;;0.75;0.65;;;21.20;99.90;;;;;;5046080;28;20502;-73
2023/08/03 12:06:10;;;;;;;3.17;0.73;;;21.40;99.90;;;;;;5048051;28;20098;-73
2023/08/03 12:08:47;;;;;;;3.35;0.85;;;21.50;99.90;;;;;;5063994;28;20082;-73
2023/08/03 12:11:19;;;;;;;3.70;0.80;;;21.60;99.90;;;;;;5064485;28;20057;-73
2023/08/03 12:13:45;;;;;;;2.63;0.63;;;21.80;99.90;;;;;;5060633;28;20099;-74
2023/08/03 12:16:12;;;;;;;3.20;0.80;;;21.90;99.90;;;;;;5045388;28;20888;-73
2023/08/03 12:18:38;;;;;;;2.88;0.73;;;21.80;97.30;;;;;;5064442;28;20057;-73
2023/08/03 12:21:03;;;;;;;3.78;0.85;;;21.60;97.50;;;;;;5064643;28;20051;-73
2023/08/03 12:23:29;;;;;;;4.07;0.73;;;21.30;99.90;;;;;;5068269;28;20657;-74
2023/08/03 12:25:55;;;;;;;3.28;0.47;;;21.20;99.90;;;;;;5069186;28;20052;-73
2023/08/03 12:28:22;;;;;;;3.35;0.80;;;21.30;99.90;;;;;;5067456;28;20097;-74
2023/08/03 12:30:47;;;;;;;2.65;0.82;;;21.30;99.90;;;;;;5052482;28;20040;-73
2023/08/03 12:33:13;;;;;;;5.05;0.98;;;21.40;99.90;;;;;;5066420;28;20059;-73
2023/08/03 12:35:39;;;;;;;1.30;0.50;;;21.50;99.90;;;;;;5068699;28;20063;-73
2023/08/03 12:38:05;;;;;;;5.28;1.08;;;21.50;99.90;;;;;;5050448;28;20048;-73
2023/08/03 12:40:30;;;;;;;3.97;0.88;;;21.50;99.90;;;;;;5051875;28;20044;-73
2023/08/03 12:42:56;;;;;;;7.05;1.50;;;21.40;99.90;;;;;;5065597;28;20496;-73
2023/08/03 12:45:23;;;;;;;6.78;1.50;;;21.20;99.90;;;;;;5067851;28;20129;-73
2023/08/03 12:47:49;;;;;;;3.35;1.00;;;21.00;99.90;;;;;;5084454;28;20048;-73
2023/08/03 12:50:16;;;;;;;4.57;1.17;;;20.90;99.90;;;;;;5050460;28;20041;-73